Time;durP1;ratioP1;P1;durP2;ratioP2;P2;SDS_P1;SDS_P2;PMS_P1;PMS_P2;Temp;Humidity;BMP_temperature;BMP_pressure;BME280_temperature;BME280_humidity;BME280_pressure;Samples;Min_cycle;Max_cycle;Signal;HPM_P1;HPM_P2
2022/08/03 00:02:24;;;;;;;5.70;3.28;;;;;;;;;;5052797;28;20052;-77
2022/08/03 00:04:50;;;;;;;6.95;2.85;;;;;;;;;;5042214;28;20053;-77
2022/08/03 00:07:16;;;;;;;7.25;3.50;;;;;;;;;;5044618;28;20111;-76
2022/08/03 00:09:42;;;;;;;7.80;3.63;;;;;;;;;;5064281;28;20049;-76
2022/08/03 00:12:08;;;;;;;6.00;3.53;;;;;;;;;;5032815;28;20393;-76
2022/08/03 00:14:34;;;;;;;6.50;3.80;;;;;;;;;;5063880;28;20072;-76
2022/08/03 00:17:00;;;;;;;9.00;3.38;;;;;;;;;;5064384;28;20128;-77
2022/08/03 00:19:26;;;;;;;7.20;3.65;;;;;;;;;;5031480;28;20055;-77
2022/08/03 00:21:52;;;;;;;12.15;3.85;;;;;;;;;;5049728;28;20065;-77
2022/08/03 00:24:19;;;;;;;7.38;3.88;;;;;;;;;;5050536;28;20045;-76
2022/08/03 00:26:45;;;;;;;7.90;3.90;;;;;;;;;;5052131;28;20056;-76
2022/08/03 00:29:11;;;;;;;9.35;4.15;;;;;;;;;;5039217;28;20484;-76
2022/08/03 00:31:37;;;;;;;11.93;3.67;;;;;;;;;;5037113;28;20047;-76
2022/08/03 00:34:03;;;;;;;6.57;3.40;;;;;;;;;;5055864;28;20041;-76
2022/08/03 00:36:29;;;;;;;7.68;3.97;;;;;;;;;;5033702;28;20060;-76
2022/08/03 00:38:55;;;;;;;8.13;3.75;;;;;;;;;;5036227;28;20042;-76
2022/08/03 00:41:22;;;;;;;8.10;3.80;;;;;;;;;;5068111;28;20060;-76
2022/08/03 00:43:48;;;;;;;9.50;3.65;;;;;;;;;;5035342;28;20041;-76
2022/08/03 00:46:14;;;;;;;8.45;3.60;;;;;;;;;;5068065;28;20046;-76
2022/08/03 00:48:40;;;;;;;11.93;3.88;;;;;;;;;;5067621;28;20049;-76
2022/08/03 00:51:06;;;;;;;9.02;3.60;;;;;;;;;;5035067;28;20061;-77
2022/08/03 00:53:32;;;;;;;7.90;3.40;;;;;;;;;;5035894;28;20520;-76
2022/08/03 00:55:58;;;;;;;9.85;3.60;;;;;;;;;;5044805;28;20488;-76
2022/08/03 00:58:24;;;;;;;7.55;3.60;;;;;;;;;;5053250;28;20388;-76
2022/08/03 01:00:50;;;;;;;7.00;3.60;;;;;;;;;;5055679;28;20045;-76
2022/08/03 01:03:16;;;;;;;8.00;3.15;;;;;;;;;;5054587;28;20055;-76
2022/08/03 01:05:52;;;;;;;8.10;3.17;;;;;;;;;;5054555;28;20124;-76
2022/08/03 01:08:18;;;;;;;4.90;2.75;;;;;;;;;;5051478;28;20128;-76
2022/08/03 01:10:49;;;;;;;9.25;3.15;;;;;;;;;;5034711;28;20533;-76
2022/08/03 01:13:34;;;;;;;10.18;3.28;;;;;;;;;;5035326;28;20091;-76
2022/08/03 01:16:00;;;;;;;9.60;3.10;;;;;;;;;;5035710;28;20459;-76
2022/08/03 01:18:30;;;;;;;8.13;3.42;;;;;;;;;;5034911;28;20126;-76
2022/08/03 01:20:57;;;;;;;6.25;3.33;;;;;;;;;;5034109;28;20045;-76
2022/08/03 01:23:32;;;;;;;8.15;3.17;;;;;;;;;;5033503;28;20059;-76
2022/08/03 01:26:17;;;;;;;9.15;3.03;;;;;;;;;;5053210;28;20033;-76
2022/08/03 01:28:57;;;;;;;9.65;3.30;;;;;;;;;;5051163;28;20144;-76
2022/08/03 01:31:25;;;;;;;5.55;2.67;;;;;;;;;;5034327;28;20060;-76
2022/08/03 01:33:56;;;;;;;8.32;2.90;;;;;;;;;;5035099;28;20130;-76
2022/08/03 01:36:24;;;;;;;11.40;3.65;;;;;;;;;;5066711;28;20070;-76
2022/08/03 01:38:53;;;;;;;7.22;3.30;;;;;;;;;;5033673;28;20041;-76
2022/08/03 01:41:25;;;;;;;9.88;3.28;;;;;;;;;;5034830;28;20045;-76
2022/08/03 01:43:52;;;;;;;10.65;3.35;;;;;;;;;;5034738;28;20520;-76
2022/08/03 01:46:19;;;;;;;8.43;3.13;;;;;;;;;;5034100;28;20433;-76
2022/08/03 01:48:47;;;;;;;10.82;3.28;;;;;;;;;;5034446;28;20051;-76
2022/08/03 01:51:14;;;;;;;9.20;3.38;;;;;;;;;;5034949;28;20128;-76
2022/08/03 01:53:43;;;;;;;7.50;3.03;;;;;;;;;;5067190;28;20054;-76
2022/08/03 01:56:09;;;;;;;9.57;3.00;;;;;;;;;;5033705;28;20095;-76
2022/08/03 01:58:36;;;;;;;8.20;3.25;;;;;;;;;;5033596;28;20440;-76
2022/08/03 02:01:03;;;;;;;8.60;3.38;;;;;;;;;;5032784;28;20076;-76
2022/08/03 02:03:29;;;;;;;6.82;3.17;;;;;;;;;;5035758;28;20115;-76
2022/08/03 02:05:56;;;;;;;9.57;3.63;;;;;;;;;;5053198;28;20076;-76
2022/08/03 02:08:24;;;;;;;9.15;3.25;;;;;;;;;;5052667;28;20060;-76
2022/08/03 02:10:51;;;;;;;6.78;2.60;;;;;;;;;;5040198;28;20137;-76
2022/08/03 02:13:18;;;;;;;8.88;3.20;;;;;;;;;;5066522;28;20049;-76
2022/08/03 02:15:46;;;;;;;10.10;3.55;;;;;;;;;;5033503;28;20080;-76
2022/08/03 02:18:12;;;;;;;9.43;3.47;;;;;;;;;;5034215;28;20073;-76
2022/08/03 02:20:39;;;;;;;7.38;2.95;;;;;;;;;;5037933;28;20076;-76
2022/08/03 02:23:06;;;;;;;6.82;3.55;;;;;;;;;;5085959;28;20053;-76
2022/08/03 02:25:33;;;;;;;13.07;3.53;;;;;;;;;;5049108;28;20056;-76
2022/08/03 02:28:00;;;;;;;10.40;3.03;;;;;;;;;;5051958;28;20047;-76
2022/08/03 02:30:30;;;;;;;9.90;3.20;;;;;;;;;;5054027;28;20438;-76
2022/08/03 02:32:57;;;;;;;6.53;3.40;;;;;;;;;;5051117;28;20052;-76
2022/08/03 02:35:25;;;;;;;18.15;3.38;;;;;;;;;;5053013;28;20190;-76
2022/08/03 02:37:55;;;;;;;11.45;3.13;;;;;;;;;;5052499;28;20040;-76
2022/08/03 02:40:22;;;;;;;7.85;3.30;;;;;;;;;;5053016;28;20393;-76
2022/08/03 02:42:49;;;;;;;13.82;3.38;;;;;;;;;;5034913;28;20396;-76
2022/08/03 02:45:16;;;;;;;10.85;3.40;;;;;;;;;;5065660;28;20132;-76
2022/08/03 02:47:44;;;;;;;10.52;3.30;;;;;;;;;;5033951;28;20045;-76
2022/08/03 02:50:11;;;;;;;8.75;3.08;;;;;;;;;;5064596;28;20088;-76
2022/08/03 02:52:38;;;;;;;11.82;3.40;;;;;;;;;;5033275;28;20489;-76
2022/08/03 02:55:05;;;;;;;9.35;3.47;;;;;;;;;;5077646;28;20080;-76
2022/08/03 02:57:31;;;;;;;8.98;3.13;;;;;;;;;;5051061;28;20455;-76
2022/08/03 02:59:57;;;;;;;9.95;3.25;;;;;;;;;;5040691;28;20080;-76
2022/08/03 03:02:24;;;;;;;8.80;3.38;;;;;;;;;;5065306;28;20051;-77
2022/08/03 03:04:50;;;;;;;6.70;3.00;;;;;;;;;;5081450;28;20049;-77
2022/08/03 03:07:17;;;;;;;9.43;3.33;;;;;;;;;;5049445;28;20037;-76
2022/08/03 03:09:43;;;;;;;8.63;3.20;;;;;;;;;;5032980;28;20156;-76
2022/08/03 03:12:10;;;;;;;9.18;3.47;;;;;;;;;;5032298;28;20068;-77
2022/08/03 03:14:37;;;;;;;11.55;3.22;;;;;;;;;;5040869;28;20056;-76
2022/08/03 03:17:04;;;;;;;10.35;3.30;;;;;;;;;;5052306;28;20045;-76
2022/08/03 03:19:31;;;;;;;12.25;3.53;;;;;;;;;;5050425;28;20049;-76
2022/08/03 03:21:59;;;;;;;8.32;3.35;;;;;;;;;;5052807;28;20516;-77
2022/08/03 03:24:25;;;;;;;10.02;3.38;;;;;;;;;;5035843;28;20407;-76
2022/08/03 03:26:52;;;;;;;8.07;3.65;;;;;;;;;;5032914;28;20060;-76
2022/08/03 03:29:18;;;;;;;9.93;3.38;;;;;;;;;;5032954;28;20045;-76
2022/08/03 03:31:44;;;;;;;8.63;3.67;;;;;;;;;;5032127;28;20045;-76
2022/08/03 03:34:10;;;;;;;9.55;3.38;;;;;;;;;;5033202;28;20372;-76
2022/08/03 03:36:36;;;;;;;11.27;3.50;;;;;;;;;;5033194;28;20080;-76
2022/08/03 03:39:02;;;;;;;9.07;3.50;;;;;;;;;;5064265;28;20085;-76
2022/08/03 03:41:28;;;;;;;10.45;3.72;;;;;;;;;;5045423;28;20041;-76
2022/08/03 03:43:55;;;;;;;10.73;3.45;;;;;;;;;;5051284;28;20059;-76
2022/08/03 03:46:21;;;;;;;12.02;3.95;;;;;;;;;;5050504;28;20052;-76
2022/08/03 03:48:47;;;;;;;9.75;3.60;;;;;;;;;;5051001;28;20040;-76
2022/08/03 03:51:13;;;;;;;10.43;3.75;;;;;;;;;;5033123;28;20045;-76
2022/08/03 03:53:39;;;;;;;9.10;3.78;;;;;;;;;;5030583;28;20045;-76
2022/08/03 03:56:05;;;;;;;12.27;3.50;;;;;;;;;;5031384;28;20141;-76
2022/08/03 03:58:32;;;;;;;13.45;3.55;;;;;;;;;;5032576;28;20103;-76
2022/08/03 04:00:58;;;;;;;7.75;3.67;;;;;;;;;;5031717;28;20132;-76
2022/08/03 04:03:24;;;;;;;9.48;3.90;;;;;;;;;;5034555;28;20045;-76
2022/08/03 04:11:28;;;;;;;12.32;4.13;;;;;;;;;;5068998;28;20077;-77
2022/08/03 04:13:57;;;;;;;13.73;3.53;;;;;;;;;;5036624;28;20049;-76
2022/08/03 04:16:28;;;;;;;8.73;3.90;;;;;;;;;;5056607;28;20049;-76
2022/08/03 04:18:58;;;;;;;10.32;3.60;;;;;;;;;;5052595;28;20042;-76
2022/08/03 04:21:24;;;;;;;9.93;3.63;;;;;;;;;;5038006;28;20053;-76
2022/08/03 04:23:52;;;;;;;8.80;3.85;;;;;;;;;;5035474;28;20064;-76
2022/08/03 04:26:20;;;;;;;12.13;4.10;;;;;;;;;;5036354;28;20117;-76
2022/08/03 04:28:46;;;;;;;10.48;3.60;;;;;;;;;;5034262;28;20048;-76
2022/08/03 04:31:14;;;;;;;9.30;4.25;;;;;;;;;;5036819;28;20409;-76
2022/08/03 04:33:41;;;;;;;11.35;3.90;;;;;;;;;;5054681;28;20045;-76
2022/08/03 04:36:08;;;;;;;9.98;3.92;;;;;;;;;;5038574;28;20096;-76
2022/08/03 04:38:48;;;;;;;12.40;3.97;;;;;;;;;;5036473;28;20051;-76
2022/08/03 04:41:15;;;;;;;11.02;4.07;;;;;;;;;;5035565;28;20045;-76
2022/08/03 04:43:41;;;;;;;8.98;3.40;;;;;;;;;;5034588;28;20378;-76
2022/08/03 04:46:07;;;;;;;11.45;3.90;;;;;;;;;;5034530;28;20045;-76
2022/08/03 04:48:34;;;;;;;9.95;3.70;;;;;;;;;;5035563;28;20370;-76
2022/08/03 04:51:03;;;;;;;8.27;3.38;;;;;;;;;;5034526;28;20501;-76
2022/08/03 04:53:29;;;;;;;8.93;3.92;;;;;;;;;;5034503;28;20085;-76
2022/08/03 04:55:55;;;;;;;12.48;4.10;;;;;;;;;;5033392;28;20040;-76
2022/08/03 04:58:21;;;;;;;10.38;3.97;;;;;;;;;;5035997;28;20046;-76
2022/08/03 05:00:50;;;;;;;10.55;3.95;;;;;;;;;;5067476;28;20482;-76
2022/08/03 05:03:16;;;;;;;10.88;3.85;;;;;;;;;;5085638;28;20396;-77
2022/08/03 05:05:42;;;;;;;7.97;3.80;;;;;;;;;;5045913;28;20405;-76
2022/08/03 05:08:08;;;;;;;11.15;4.25;;;;;;;;;;5067620;28;20104;-77
2022/08/03 05:10:34;;;;;;;10.20;4.18;;;;;;;;;;5044055;28;20515;-76
2022/08/03 05:13:00;;;;;;;12.50;4.28;;;;;;;;;;5055253;28;20059;-76
2022/08/03 05:15:26;;;;;;;11.95;4.15;;;;;;;;;;5055028;28;20402;-76
2022/08/03 05:17:52;;;;;;;10.20;4.15;;;;;;;;;;5036352;28;20152;-77
2022/08/03 05:20:18;;;;;;;9.55;3.80;;;;;;;;;;5067322;28;20541;-77
2022/08/03 05:22:44;;;;;;;13.10;3.85;;;;;;;;;;5067208;28;20445;-76
2022/08/03 05:25:10;;;;;;;10.73;3.90;;;;;;;;;;5066516;28;20046;-76
2022/08/03 05:27:36;;;;;;;9.93;3.90;;;;;;;;;;5066832;28;20045;-76
2022/08/03 05:30:02;;;;;;;12.73;4.30;;;;;;;;;;5035495;28;20042;-77
2022/08/03 05:32:28;;;;;;;11.00;3.85;;;;;;;;;;5077530;28;20124;-76
2022/08/03 05:34:54;;;;;;;15.00;4.93;;;;;;;;;;5033817;28;20080;-76
2022/08/03 05:37:20;;;;;;;10.88;4.15;;;;;;;;;;5035095;28;20053;-76
2022/08/03 05:39:46;;;;;;;14.82;4.63;;;;;;;;;;5047195;28;20393;-76
2022/08/03 05:42:14;;;;;;;8.60;3.95;;;;;;;;;;5033659;28;20053;-76
2022/08/03 05:44:40;;;;;;;14.13;3.80;;;;;;;;;;5034179;28;20117;-76
2022/08/03 05:47:07;;;;;;;12.38;4.35;;;;;;;;;;5066858;28;20478;-76
2022/08/03 05:49:33;;;;;;;9.85;3.70;;;;;;;;;;5066448;28;20060;-76
2022/08/03 05:51:59;;;;;;;12.63;3.83;;;;;;;;;;5034278;28;20393;-77
2022/08/03 05:54:25;;;;;;;11.88;3.92;;;;;;;;;;5034857;28;20049;-77
2022/08/03 05:56:51;;;;;;;11.05;3.70;;;;;;;;;;5034812;28;20041;-76
2022/08/03 05:59:17;;;;;;;11.93;4.78;;;;;;;;;;5065873;28;20103;-76
2022/08/03 06:01:43;;;;;;;14.43;4.38;;;;;;;;;;5071189;28;20127;-77
2022/08/03 06:04:09;;;;;;;12.05;4.03;;;;;;;;;;5053260;28;20128;-78
2022/08/03 06:06:35;;;;;;;16.52;3.92;;;;;;;;;;5039178;28;20045;-76
2022/08/03 06:09:01;;;;;;;11.77;3.95;;;;;;;;;;5034565;28;20056;-77
2022/08/03 06:11:26;;;;;;;13.68;3.85;;;;;;;;;;5066513;28;20037;-77
2022/08/03 06:13:52;;;;;;;12.60;4.13;;;;;;;;;;5065473;28;20056;-76
2022/08/03 06:16:18;;;;;;;12.88;4.63;;;;;;;;;;5034197;28;20049;-77
2022/08/03 06:18:45;;;;;;;13.90;4.60;;;;;;;;;;5066104;28;20060;-76
2022/08/03 06:21:11;;;;;;;16.63;4.97;;;;;;;;;;5065093;28;20156;-77
2022/08/03 06:23:37;;;;;;;13.20;4.75;;;;;;;;;;5074195;28;20519;-76
2022/08/03 06:26:03;;;;;;;15.32;4.38;;;;;;;;;;5052843;28;20076;-76
2022/08/03 06:28:29;;;;;;;11.70;4.18;;;;;;;;;;5050804;28;20703;-77
2022/08/03 06:30:55;;;;;;;15.23;4.47;;;;;;;;;;5052025;28;20045;-76
2022/08/03 06:33:21;;;;;;;9.75;4.13;;;;;;;;;;5052691;28;20068;-77
2022/08/03 06:35:47;;;;;;;14.10;5.10;;;;;;;;;;5041044;28;20445;-76
2022/08/03 06:38:13;;;;;;;14.57;4.47;;;;;;;;;;5032466;28;20444;-76
2022/08/03 06:40:39;;;;;;;10.10;4.15;;;;;;;;;;5048975;28;20041;-76
2022/08/03 06:43:06;;;;;;;15.07;4.03;;;;;;;;;;5052265;28;20049;-77
2022/08/03 06:45:32;;;;;;;11.90;4.40;;;;;;;;;;5041138;28;20136;-76
2022/08/03 06:48:03;;;;;;;16.23;4.53;;;;;;;;;;5033146;28;20045;-77
2022/08/03 06:50:29;;;;;;;14.48;4.53;;;;;;;;;;5033507;28;20042;-76
2022/08/03 06:52:55;;;;;;;14.20;5.53;;;;;;;;;;5065717;28;20053;-77
2022/08/03 06:55:21;;;;;;;12.70;4.43;;;;;;;;;;5032890;28;20041;-76
2022/08/03 06:57:47;;;;;;;15.88;4.30;;;;;;;;;;5035440;28;20045;-76
2022/08/03 07:00:13;;;;;;;11.93;4.40;;;;;;;;;;5037097;28;20043;-77
2022/08/03 07:02:40;;;;;;;12.30;4.55;;;;;;;;;;5031013;28;20099;-77
2022/08/03 07:05:06;;;;;;;13.07;4.18;;;;;;;;;;5033513;28;20045;-77
2022/08/03 07:07:32;;;;;;;12.63;4.38;;;;;;;;;;5033406;28;20045;-77
2022/08/03 07:09:58;;;;;;;11.88;5.07;;;;;;;;;;5032673;28;20049;-77
2022/08/03 07:12:25;;;;;;;13.60;4.85;;;;;;;;;;5032012;28;20405;-77
2022/08/03 07:14:51;;;;;;;10.65;4.88;;;;;;;;;;5033175;28;20042;-76
2022/08/03 07:17:17;;;;;;;11.65;4.40;;;;;;;;;;5032358;28;20065;-76
2022/08/03 07:19:43;;;;;;;12.13;4.78;;;;;;;;;;5033438;28;20045;-76
2022/08/03 07:22:10;;;;;;;16.42;5.55;;;;;;;;;;5032703;28;20058;-76
2022/08/03 07:24:36;;;;;;;12.68;5.28;;;;;;;;;;5064154;28;20057;-76
2022/08/03 07:27:02;;;;;;;14.98;5.47;;;;;;;;;;5044811;28;20052;-76
2022/08/03 07:29:28;;;;;;;16.98;5.25;;;;;;;;;;5052905;28;20085;-77
2022/08/03 07:31:54;;;;;;;15.57;5.40;;;;;;;;;;5051017;28;20056;-77
2022/08/03 07:34:20;;;;;;;12.27;4.93;;;;;;;;;;5036327;28;20046;-77
2022/08/03 07:36:46;;;;;;;15.38;4.75;;;;;;;;;;5032542;28;20060;-76
2022/08/03 07:39:12;;;;;;;12.57;5.18;;;;;;;;;;5063462;28;20390;-77
2022/08/03 07:41:38;;;;;;;14.73;5.07;;;;;;;;;;5064802;28;20064;-77
2022/08/03 07:44:04;;;;;;;11.57;5.03;;;;;;;;;;5082326;28;20049;-77
2022/08/03 07:46:30;;;;;;;13.02;5.03;;;;;;;;;;5053022;28;20130;-77
2022/08/03 07:48:56;;;;;;;12.45;4.75;;;;;;;;;;5051462;28;20052;-77
2022/08/03 07:51:22;;;;;;;18.45;5.70;;;;;;;;;;5034981;28;20463;-77
2022/08/03 07:53:48;;;;;;;12.68;5.18;;;;;;;;;;5032481;28;20042;-77
2022/08/03 07:56:15;;;;;;;12.05;5.50;;;;;;;;;;5036688;28;20134;-77
2022/08/03 07:58:41;;;;;;;11.02;4.82;;;;;;;;;;5049939;28;20060;-76
2022/08/03 08:01:07;;;;;;;13.73;5.07;;;;;;;;;;5032810;28;20050;-77
2022/08/03 08:03:33;;;;;;;15.20;5.38;;;;;;;;;;5032705;28;20140;-77
2022/08/03 08:05:59;;;;;;;16.25;5.63;;;;;;;;;;5031698;28;20125;-77
2022/08/03 08:08:25;;;;;;;13.77;4.90;;;;;;;;;;5040814;28;20449;-77
2022/08/03 08:10:51;;;;;;;15.45;5.25;;;;;;;;;;5050646;28;20132;-77
2022/08/03 08:13:17;;;;;;;14.48;4.97;;;;;;;;;;5031855;28;20041;-77
2022/08/03 08:15:43;;;;;;;12.88;5.03;;;;;;;;;;5031251;28;20099;-76
2022/08/03 08:18:09;;;;;;;17.85;5.53;;;;;;;;;;5045707;28;20098;-77
2022/08/03 08:20:39;;;;;;;19.75;5.40;;;;;;;;;;5051262;28;20417;-77
2022/08/03 08:23:06;;;;;;;17.35;5.63;;;;;;;;;;5046961;28;20045;-77
2022/08/03 08:25:33;;;;;;;13.35;5.63;;;;;;;;;;5049105;28;20445;-77
2022/08/03 08:28:01;;;;;;;17.95;6.18;;;;;;;;;;5051368;28;20077;-76
2022/08/03 08:30:27;;;;;;;11.05;5.55;;;;;;;;;;5050845;28;20037;-77
2022/08/03 08:32:53;;;;;;;10.52;5.53;;;;;;;;;;5052284;28;20056;-76
2022/08/03 08:35:19;;;;;;;16.60;5.45;;;;;;;;;;5048938;28;20041;-76
2022/08/03 08:37:46;;;;;;;12.75;5.50;;;;;;;;;;5031152;28;20426;-76
2022/08/03 08:40:12;;;;;;;15.23;6.18;;;;;;;;;;5032408;28;20037;-76
2022/08/03 08:42:39;;;;;;;15.90;5.60;;;;;;;;;;5063203;28;20057;-76
2022/08/03 08:45:07;;;;;;;15.23;5.75;;;;;;;;;;5043257;28;20098;-76
2022/08/03 08:47:33;;;;;;;25.00;6.05;;;;;;;;;;5050199;28;20053;-75
2022/08/03 08:50:00;;;;;;;15.70;5.47;;;;;;;;;;5041772;28;20089;-76
2022/08/03 08:52:28;;;;;;;17.15;5.07;;;;;;;;;;5039025;28;20061;-76
2022/08/03 08:55:02;;;;;;;13.98;5.22;;;;;;;;;;5054714;28;20449;-76
2022/08/03 08:57:29;;;;;;;17.13;5.90;;;;;;;;;;5055353;28;20056;-77
2022/08/03 08:59:56;;;;;;;17.92;5.35;;;;;;;;;;5041203;28;20045;-77
2022/08/03 09:02:28;;;;;;;13.15;5.55;;;;;;;;;;5050987;28;20500;-76
2022/08/03 09:04:55;;;;;;;16.40;5.65;;;;;;;;;;5035571;28;20128;-77
2022/08/03 09:07:21;;;;;;;14.82;5.57;;;;;;;;;;5035268;28;20497;-77
2022/08/03 09:09:47;;;;;;;11.73;5.13;;;;;;;;;;5034962;28;20052;-77
2022/08/03 09:12:13;;;;;;;16.35;5.50;;;;;;;;;;5076674;28;20045;-76
2022/08/03 09:14:39;;;;;;;21.63;9.27;;;;;;;;;;5053638;28;20127;-77
2022/08/03 09:17:05;;;;;;;17.08;6.40;;;;;;;;;;5053138;28;20511;-77
2022/08/03 09:19:32;;;;;;;15.82;5.90;;;;;;;;;;5041465;28;20056;-77
2022/08/03 09:22:09;;;;;;;11.23;5.00;;;;;;;;;;5035061;28;20049;-77
2022/08/03 09:24:35;;;;;;;15.70;5.85;;;;;;;;;;5049738;28;20057;-77
2022/08/03 09:27:01;;;;;;;14.95;5.88;;;;;;;;;;5035429;28;20052;-77
2022/08/03 09:29:31;;;;;;;14.48;5.40;;;;;;;;;;5035036;28;20469;-77
2022/08/03 09:32:01;;;;;;;16.30;5.00;;;;;;;;;;5035182;28;20409;-77
2022/08/03 09:34:27;;;;;;;21.00;6.03;;;;;;;;;;5035120;28;20043;-77
2022/08/03 09:36:54;;;;;;;15.18;5.57;;;;;;;;;;5081918;28;20048;-77
2022/08/03 09:39:25;;;;;;;14.52;5.10;;;;;;;;;;5055180;28;20049;-77
2022/08/03 09:42:23;;;;;;;16.67;5.53;;;;;;;;;;5053647;28;20040;-77
2022/08/03 09:44:50;;;;;;;14.73;4.97;;;;;;;;;;5069177;28;20064;-77
2022/08/03 09:47:27;;;;;;;17.38;5.07;;;;;;;;;;5081287;28;20045;-77
2022/08/03 09:49:57;;;;;;;19.65;5.40;;;;;;;;;;5053018;28;20144;-77
2022/08/03 09:52:29;;;;;;;14.27;5.45;;;;;;;;;;5052103;28;20049;-77
2022/08/03 09:54:55;;;;;;;16.25;6.18;;;;;;;;;;5053096;28;20048;-77
2022/08/03 09:57:22;;;;;;;17.10;6.13;;;;;;;;;;5052704;28;20124;-78
2022/08/03 09:59:49;;;;;;;17.10;6.15;;;;;;;;;;5053417;28;20047;-76
2022/08/03 10:02:22;;;;;;;20.95;6.65;;;;;;;;;;5041052;28;20061;-77
2022/08/03 10:04:51;;;;;;;16.25;5.72;;;;;;;;;;5033885;28;20052;-76
2022/08/03 10:07:17;;;;;;;16.83;6.38;;;;;;;;;;5049995;28;20044;-77
2022/08/03 10:09:53;;;;;;;19.45;6.82;;;;;;;;;;5034451;28;20374;-77
2022/08/03 10:12:20;;;;;;;22.48;6.38;;;;;;;;;;5067779;28;20041;-77
2022/08/03 10:14:46;;;;;;;21.30;6.63;;;;;;;;;;5086519;28;20106;-76
2022/08/03 10:17:13;;;;;;;13.10;5.82;;;;;;;;;;5045000;28;20376;-77
2022/08/03 10:19:40;;;;;;;15.02;5.97;;;;;;;;;;5033694;28;20058;-77
2022/08/03 10:22:19;;;;;;;16.15;5.80;;;;;;;;;;5032509;28;20061;-77
2022/08/03 10:25:06;;;;;;;14.73;5.65;;;;;;;;;;5045646;28;20071;-76
2022/08/03 10:27:33;;;;;;;14.38;5.78;;;;;;;;;;5033433;28;20151;-77
2022/08/03 10:30:02;;;;;;;18.55;6.18;;;;;;;;;;5034085;28;20038;-77
2022/08/03 10:32:30;;;;;;;17.65;6.15;;;;;;;;;;5034065;28;20057;-77
2022/08/03 10:35:03;;;;;;;14.48;5.88;;;;;;;;;;5034421;28;20367;-78
2022/08/03 10:37:30;;;;;;;12.18;5.15;;;;;;;;;;5032244;28;20076;-76
2022/08/03 10:39:57;;;;;;;13.15;5.43;;;;;;;;;;5033164;28;20103;-77
2022/08/03 10:42:24;;;;;;;16.70;5.28;;;;;;;;;;5035233;28;20100;-77
2022/08/03 10:44:53;;;;;;;14.73;5.40;;;;;;;;;;5053657;28;20060;-78
2022/08/03 10:47:19;;;;;;;13.20;5.05;;;;;;;;;;5051537;28;20037;-77
2022/08/03 10:49:47;;;;;;;15.98;5.43;;;;;;;;;;5045233;28;20052;-77
2022/08/03 10:52:13;;;;;;;12.73;5.25;;;;;;;;;;5053280;28;20048;-77
2022/08/03 10:57:45;;;;;;;12.85;4.72;;;;;;;;;;5027360;28;20136;-77
2022/08/03 11:00:18;;;;;;;14.20;5.32;;;;;;;;;;5053195;28;20074;-76
2022/08/03 11:03:04;;;;;;;16.60;5.05;;;;;;;;;;5051432;28;20040;-78
2022/08/03 11:05:31;;;;;;;12.60;5.38;;;;;;;;;;5051608;28;20481;-78
2022/08/03 11:08:16;;;;;;;15.00;4.43;;;;;;;;;;5051641;28;20048;-77
2022/08/03 11:10:42;;;;;;;14.50;5.10;;;;;;;;;;5045828;28;20076;-76
2022/08/03 11:13:08;;;;;;;13.93;4.75;;;;;;;;;;5033445;28;20072;-77
2022/08/03 11:15:34;;;;;;;13.88;4.63;;;;;;;;;;5032207;28;20057;-77
2022/08/03 11:18:09;;;;;;;13.95;4.82;;;;;;;;;;5083436;28;20131;-76
2022/08/03 11:20:48;;;;;;;13.15;4.93;;;;;;;;;;5052297;28;20266;-76
2022/08/03 11:23:15;;;;;;;14.88;4.63;;;;;;;;;;5052290;28;20052;-77
2022/08/03 11:26:14;;;;;;;9.82;4.50;;;;;;;;;;5041274;28;20136;-76
2022/08/03 11:28:41;;;;;;;14.68;4.57;;;;;;;;;;5010102;28;20061;-77
2022/08/03 11:31:23;;;;;;;13.07;4.75;;;;;;;;;;5036003;28;20087;-77
2022/08/03 11:34:08;;;;;;;12.47;4.90;;;;;;;;;;5053132;28;20049;-77
2022/08/03 11:36:53;;;;;;;15.07;4.72;;;;;;;;;;5051883;28;20481;-77
2022/08/03 11:39:19;;;;;;;19.35;5.10;;;;;;;;;;5053139;28;20075;-77
2022/08/03 11:41:45;;;;;;;13.98;5.10;;;;;;;;;;5050199;28;20037;-77
2022/08/03 11:44:31;;;;;;;9.05;4.07;;;;;;;;;;5052049;28;20052;-77
2022/08/03 11:46:58;;;;;;;11.05;4.32;;;;;;;;;;5049084;28;20051;-77
2022/08/03 11:49:24;;;;;;;12.40;4.35;;;;;;;;;;5032865;28;20059;-77
2022/08/03 11:51:53;;;;;;;9.93;4.43;;;;;;;;;;5031595;28;20038;-77
2022/08/03 11:54:19;;;;;;;11.90;4.35;;;;;;;;;;5033114;28;20041;-77
2022/08/03 11:56:46;;;;;;;11.90;4.20;;;;;;;;;;5032440;28;20071;-76
2022/08/03 11:59:12;;;;;;;11.80;4.15;;;;;;;;;;5031763;28;20397;-76
2022/08/03 12:01:39;;;;;;;10.95;4.40;;;;;;;;;;5064427;28;20439;-77
2022/08/03 12:04:06;;;;;;;8.98;4.18;;;;;;;;;;5052500;28;20406;-77
2022/08/03 12:06:53;;;;;;;11.32;4.13;;;;;;;;;;5051796;28;20041;-77
2022/08/03 12:09:18;;;;;;;12.75;4.38;;;;;;;;;;5043296;28;20095;-77
2022/08/03 12:11:47;;;;;;;7.85;3.70;;;;;;;;;;5063565;28;20536;-77
2022/08/03 12:14:17;;;;;;;13.35;4.57;;;;;;;;;;5064294;28;20052;-77
2022/08/03 12:16:47;;;;;;;13.82;4.40;;;;;;;;;;5032462;28;20396;-76
2022/08/03 12:19:13;;;;;;;8.38;3.75;;;;;;;;;;5031555;28;20486;-77
2022/08/03 12:21:46;;;;;;;11.23;4.07;;;;;;;;;;5032155;28;20053;-76
2022/08/03 12:24:12;;;;;;;11.73;3.67;;;;;;;;;;5066160;28;20076;-77
2022/08/03 12:26:43;;;;;;;12.20;3.75;;;;;;;;;;5038675;28;20466;-77
2022/08/03 12:29:16;;;;;;;9.95;3.92;;;;;;;;;;5035444;28;20046;-77
2022/08/03 12:31:42;;;;;;;11.85;3.65;;;;;;;;;;5036344;28;20041;-77
2022/08/03 12:34:08;;;;;;;10.57;3.65;;;;;;;;;;5034293;28;20132;-76
2022/08/03 12:36:35;;;;;;;9.52;3.67;;;;;;;;;;5035179;28;20049;-77
2022/08/03 12:39:02;;;;;;;10.73;3.63;;;;;;;;;;5035959;28;20056;-78
2022/08/03 12:41:30;;;;;;;8.80;3.78;;;;;;;;;;5034930;28;20482;-77
2022/08/03 12:43:59;;;;;;;11.98;3.67;;;;;;;;;;5036215;28;20038;-77
2022/08/03 12:46:29;;;;;;;9.13;3.40;;;;;;;;;;5048000;28;20041;-77
2022/08/03 12:49:04;;;;;;;11.95;4.07;;;;;;;;;;5054700;28;20399;-77
2022/08/03 12:51:31;;;;;;;8.23;3.75;;;;;;;;;;5049931;28;20053;-77
2022/08/03 12:53:58;;;;;;;9.23;4.13;;;;;;;;;;5033852;28;20045;-77
2022/08/03 12:56:24;;;;;;;12.85;3.97;;;;;;;;;;5034890;28;20045;-77
2022/08/03 12:58:51;;;;;;;9.77;3.88;;;;;;;;;;5034534;28;20132;-77
2022/08/03 13:01:18;;;;;;;10.38;3.75;;;;;;;;;;5034590;28;20429;-77
2022/08/03 13:03:47;;;;;;;7.68;3.75;;;;;;;;;;5035827;28;20072;-77
2022/08/03 13:06:14;;;;;;;15.73;4.80;;;;;;;;;;5036659;28;20054;-77
2022/08/03 13:08:40;;;;;;;12.85;3.88;;;;;;;;;;5066847;28;20056;-77
2022/08/03 13:11:19;;;;;;;13.65;4.35;;;;;;;;;;5035714;28;20053;-77
2022/08/03 13:13:45;;;;;;;11.68;3.88;;;;;;;;;;5035422;28;20053;-77
2022/08/03 13:16:11;;;;;;;11.60;4.00;;;;;;;;;;5066630;28;20038;-77
2022/08/03 13:18:37;;;;;;;7.63;3.42;;;;;;;;;;5067115;28;20442;-76
2022/08/03 13:21:03;;;;;;;11.63;3.70;;;;;;;;;;5035310;28;20049;-77
2022/08/03 13:23:29;;;;;;;11.15;4.07;;;;;;;;;;5049886;28;20134;-77
2022/08/03 13:25:55;;;;;;;11.05;3.85;;;;;;;;;;5055164;28;20041;-76
2022/08/03 13:28:21;;;;;;;8.95;4.05;;;;;;;;;;5054876;28;20455;-77
2022/08/03 13:30:47;;;;;;;10.85;4.03;;;;;;;;;;5053344;28;20084;-77
2022/08/03 13:33:13;;;;;;;10.15;4.05;;;;;;;;;;5045545;28;20045;-77
2022/08/03 13:35:39;;;;;;;15.50;4.20;;;;;;;;;;5051954;28;20095;-77
2022/08/03 13:38:05;;;;;;;8.07;3.58;;;;;;;;;;5053855;28;20045;-77
2022/08/03 13:40:31;;;;;;;9.93;3.97;;;;;;;;;;5053941;28;20052;-77
2022/08/03 13:42:58;;;;;;;9.00;3.75;;;;;;;;;;5033056;28;20049;-77
2022/08/03 13:45:24;;;;;;;12.38;3.85;;;;;;;;;;5034556;28;20073;-77
2022/08/03 13:47:50;;;;;;;10.88;3.95;;;;;;;;;;5066873;28;20493;-77
2022/08/03 13:50:16;;;;;;;12.10;3.70;;;;;;;;;;5066173;28;20060;-77
2022/08/03 13:52:42;;;;;;;14.52;4.07;;;;;;;;;;5034483;28;20045;-77
2022/08/03 13:55:08;;;;;;;11.32;4.05;;;;;;;;;;5066929;28;20076;-77
2022/08/03 13:57:34;;;;;;;15.80;3.97;;;;;;;;;;5034255;28;20091;-77
2022/08/03 14:00:01;;;;;;;10.30;4.05;;;;;;;;;;5034989;28;20084;-77
2022/08/03 14:02:27;;;;;;;11.27;3.65;;;;;;;;;;5034874;28;20366;-78
2022/08/03 14:04:56;;;;;;;10.38;4.13;;;;;;;;;;5085373;28;20041;-77
2022/08/03 14:07:22;;;;;;;14.40;4.68;;;;;;;;;;5034921;28;20041;-78
2022/08/03 14:09:48;;;;;;;13.52;4.25;;;;;;;;;;5036954;28;20037;-77
2022/08/03 14:12:14;;;;;;;9.55;4.03;;;;;;;;;;5053859;28;20425;-78
2022/08/03 14:14:40;;;;;;;13.98;3.85;;;;;;;;;;5037684;28;20139;-77
2022/08/03 14:17:06;;;;;;;13.02;4.10;;;;;;;;;;5066571;28;20041;-78
2022/08/03 14:19:32;;;;;;;9.40;3.60;;;;;;;;;;5065459;28;20052;-78
2022/08/03 14:21:58;;;;;;;12.15;4.05;;;;;;;;;;5034244;28;20054;-77
2022/08/03 14:24:24;;;;;;;9.30;3.90;;;;;;;;;;5032556;28;20053;-78
2022/08/03 14:26:50;;;;;;;8.65;3.35;;;;;;;;;;5038276;28;20046;-77
2022/08/03 14:29:16;;;;;;;10.10;3.50;;;;;;;;;;5034183;28;20053;-77
2022/08/03 14:31:42;;;;;;;12.18;3.80;;;;;;;;;;5032468;28;20448;-77
2022/08/03 14:34:08;;;;;;;9.65;3.30;;;;;;;;;;5036826;28;20132;-77
2022/08/03 14:36:34;;;;;;;10.25;3.53;;;;;;;;;;5082307;28;20041;-77
2022/08/03 14:39:00;;;;;;;11.15;3.10;;;;;;;;;;5050416;28;20049;-77
2022/08/03 14:41:27;;;;;;;9.48;3.45;;;;;;;;;;5065486;28;20519;-78
2022/08/03 14:43:55;;;;;;;10.27;3.50;;;;;;;;;;5065746;28;20088;-78
2022/08/03 14:46:21;;;;;;;9.25;3.38;;;;;;;;;;5036936;28;20341;-78